Time;durP1;ratioP1;P1;durP2;ratioP2;P2;SDS_P1;SDS_P2;PMS_P1;PMS_P2;Temp;Humidity;BMP_temperature;BMP_pressure;BME280_temperature;BME280_humidity;BME280_pressure;Samples;Min_cycle;Max_cycle;Signal;HPM_P1;HPM_P2
2023/12/16 00:00:45;;;;;;;14.10;8.50;;;6.70;80.00;;;;;;5010313;28;20050;-74
2023/12/16 00:03:11;;;;;;;16.57;8.20;;;6.70;79.70;;;;;;5008055;28;20049;-74
2023/12/16 00:05:37;;;;;;;14.00;7.70;;;6.70;79.80;;;;;;5012905;28;20120;-74
2023/12/16 00:08:03;;;;;;;14.90;9.00;;;6.60;79.70;;;;;;5028049;28;20179;-74
2023/12/16 00:10:28;;;;;;;16.80;8.47;;;6.60;79.90;;;;;;5027062;28;20049;-74
2023/12/16 00:12:54;;;;;;;13.10;8.40;;;6.60;79.80;;;;;;5028267;28;20060;-74
2023/12/16 00:15:20;;;;;;;11.17;8.40;;;6.50;79.80;;;;;;5042722;28;20053;-74
2023/12/16 00:17:46;;;;;;;13.07;8.07;;;6.50;79.70;;;;;;5027839;28;20094;-75
2023/12/16 00:20:11;;;;;;;12.73;8.13;;;6.40;79.90;;;;;;5027181;28;20046;-74
2023/12/16 00:22:40;;;;;;;13.53;8.63;;;6.40;80.00;;;;;;5028237;28;20136;-74
2023/12/16 00:25:09;;;;;;;11.63;7.13;;;6.30;80.00;;;;;;5025990;28;20076;-74
2023/12/16 00:27:38;;;;;;;16.17;8.07;;;6.20;80.30;;;;;;5028258;28;20052;-74
2023/12/16 00:30:06;;;;;;;10.10;9.10;;;6.20;80.30;;;;;;5026850;28;20140;-74
2023/12/16 00:32:31;;;;;;;14.60;8.10;;;6.10;80.00;;;;;;5027939;28;20408;-74
2023/12/16 00:34:57;;;;;;;16.30;9.43;;;6.10;79.50;;;;;;5027473;28;20049;-74
2023/12/16 00:37:23;;;;;;;10.50;8.40;;;6.10;79.60;;;;;;5026570;28;20144;-74
2023/12/16 00:39:49;;;;;;;16.97;8.10;;;6.10;79.70;;;;;;5025223;28;20119;-74
2023/12/16 00:42:15;;;;;;;11.17;6.63;;;6.10;79.20;;;;;;5018738;28;20081;-74
2023/12/16 00:44:41;;;;;;;13.77;7.03;;;6.00;79.30;;;;;;5026880;28;20092;-74
2023/12/16 00:47:06;;;;;;;14.97;6.80;;;6.10;79.30;;;;;;5025484;28;20469;-74
2023/12/16 00:49:32;;;;;;;10.50;6.73;;;6.10;79.40;;;;;;5028004;28;20056;-74
2023/12/16 00:51:58;;;;;;;11.93;6.83;;;6.00;79.60;;;;;;5027044;28;20560;-71
2023/12/16 00:54:26;;;;;;;14.43;6.87;;;6.00;79.30;;;;;;5014987;28;20132;-74
2023/12/16 00:56:52;;;;;;;13.43;7.20;;;6.00;79.30;;;;;;5007268;28;20061;-74
2023/12/16 00:59:17;;;;;;;13.23;7.60;;;6.00;79.00;;;;;;5026748;28;20346;-74
2023/12/16 01:01:43;;;;;;;13.60;6.93;;;6.00;79.00;;;;;;5024856;28;20053;-74
2023/12/16 01:04:11;;;;;;;12.17;6.60;;;6.00;78.80;;;;;;5020012;28;20608;-73
2023/12/16 01:06:37;;;;;;;14.00;6.83;;;6.00;78.80;;;;;;5038430;28;20497;-74
2023/12/16 01:09:03;;;;;;;14.67;6.40;;;5.90;78.80;;;;;;5027185;28;20073;-74
2023/12/16 01:11:28;;;;;;;14.17;6.77;;;5.90;78.90;;;;;;5014550;28;20100;-74
2023/12/16 01:13:54;;;;;;;17.03;7.10;;;5.90;78.60;;;;;;5019044;28;20051;-74
2023/12/16 01:16:20;;;;;;;17.90;6.17;;;5.90;78.70;;;;;;5016853;28;20117;-74
2023/12/16 01:18:45;;;;;;;11.97;5.10;;;5.90;78.40;;;;;;5011304;28;20058;-73
2023/12/16 01:21:11;;;;;;;17.57;7.47;;;5.90;78.30;;;;;;5024548;28;20045;-74
2023/12/16 01:23:37;;;;;;;14.90;6.40;;;5.90;78.10;;;;;;5022422;28;20045;-74
2023/12/16 01:26:04;;;;;;;9.70;5.07;;;6.00;78.30;;;;;;5014416;28;20061;-73
2023/12/16 01:28:30;;;;;;;13.47;5.47;;;6.00;78.10;;;;;;5027159;28;20060;-74
2023/12/16 01:30:56;;;;;;;17.90;6.40;;;6.00;78.10;;;;;;5026272;28;20057;-74
2023/12/16 01:33:22;;;;;;;15.07;7.70;;;6.00;77.90;;;;;;5026605;28;20049;-75
2023/12/16 01:35:48;;;;;;;12.73;5.53;;;6.00;77.60;;;;;;5022437;28;20113;-74
2023/12/16 01:38:14;;;;;;;12.57;6.03;;;6.10;77.80;;;;;;5006231;28;20054;-74
2023/12/16 01:40:39;;;;;;;14.97;6.07;;;6.10;77.50;;;;;;5006531;28;20057;-74
2023/12/16 01:43:07;;;;;;;9.73;5.80;;;6.00;77.60;;;;;;5012938;28;20100;-74
2023/12/16 01:45:32;;;;;;;17.00;5.63;;;6.00;77.70;;;;;;5006239;28;20058;-74
2023/12/16 01:47:59;;;;;;;15.37;7.97;;;6.00;77.90;;;;;;5006096;28;20054;-74
2023/12/16 01:50:26;;;;;;;9.07;6.73;;;6.00;77.70;;;;;;5005981;28;20081;-74
2023/12/16 01:52:53;;;;;;;11.07;6.40;;;6.00;77.60;;;;;;5005388;28;20080;-74
2023/12/16 01:55:19;;;;;;;10.13;4.77;;;6.00;77.40;;;;;;5040429;28;20046;-74
2023/12/16 01:57:46;;;;;;;12.60;5.13;;;6.00;77.70;;;;;;5026675;28;20108;-74
2023/12/16 02:00:13;;;;;;;10.80;7.67;;;6.00;77.70;;;;;;5024134;28;20056;-74
2023/12/16 02:02:40;;;;;;;16.13;7.40;;;5.90;77.60;;;;;;5026180;28;20049;-74
2023/12/16 02:05:07;;;;;;;11.20;4.83;;;5.90;77.70;;;;;;5025561;28;20038;-73
2023/12/16 02:07:32;;;;;;;13.17;5.03;;;5.90;77.80;;;;;;5027018;28;20076;-73
2023/12/16 02:10:01;;;;;;;12.83;5.37;;;5.80;77.80;;;;;;5026457;28;20493;-73
2023/12/16 02:12:27;;;;;;;15.43;6.30;;;5.80;78.00;;;;;;5025667;28;20483;-73
2023/12/16 02:14:53;;;;;;;11.00;6.07;;;5.70;78.20;;;;;;5026076;28;20504;-74
2023/12/16 02:17:18;;;;;;;14.40;6.23;;;5.60;78.30;;;;;;5019928;28;20052;-74
2023/12/16 02:19:47;;;;;;;14.30;7.40;;;5.60;78.50;;;;;;5005938;28;20422;-74
2023/12/16 02:22:13;;;;;;;12.80;5.27;;;5.50;78.60;;;;;;5012393;28;20056;-74
2023/12/16 02:24:41;;;;;;;15.20;8.03;;;5.50;78.70;;;;;;5025935;28;20045;-74
2023/12/16 02:27:08;;;;;;;18.13;7.43;;;5.50;78.70;;;;;;5024548;28;20156;-74
2023/12/16 02:29:33;;;;;;;12.57;7.53;;;5.50;78.80;;;;;;5026055;28;20489;-73
2023/12/16 02:31:59;;;;;;;15.93;8.37;;;5.40;79.00;;;;;;5025006;28;20046;-74
2023/12/16 02:34:26;;;;;;;14.40;5.83;;;5.30;79.00;;;;;;5025613;28;20080;-73
2023/12/16 02:36:52;;;;;;;13.90;7.13;;;5.30;79.20;;;;;;5025181;28;20153;-74
2023/12/16 02:39:18;;;;;;;13.83;6.10;;;5.30;79.30;;;;;;5026015;28;20511;-73
2023/12/16 02:41:45;;;;;;;15.43;5.33;;;5.30;79.30;;;;;;5017215;28;20457;-74
2023/12/16 02:44:11;;;;;;;16.50;5.80;;;5.20;79.50;;;;;;5024805;28;20100;-73
2023/12/16 02:46:36;;;;;;;13.73;5.33;;;5.10;79.60;;;;;;5023207;28;20053;-73
2023/12/16 02:49:02;;;;;;;13.90;6.33;;;5.10;79.60;;;;;;5025229;28;20057;-73
2023/12/16 02:51:29;;;;;;;16.33;6.13;;;5.10;79.80;;;;;;5025886;28;20053;-73
2023/12/16 02:53:55;;;;;;;16.67;6.17;;;5.00;79.90;;;;;;5023820;28;20042;-74
2023/12/16 02:56:21;;;;;;;11.27;5.13;;;5.10;80.00;;;;;;5024679;28;20489;-74
2023/12/16 02:58:47;;;;;;;16.93;6.17;;;5.10;80.10;;;;;;5025890;28;20421;-74
2023/12/16 03:01:13;;;;;;;17.73;6.33;;;5.10;80.20;;;;;;5025477;28;20053;-74
2023/12/16 03:03:39;;;;;;;14.67;6.60;;;5.00;80.20;;;;;;5025772;28;20054;-74
2023/12/16 03:06:06;;;;;;;18.30;5.70;;;5.00;80.30;;;;;;5023707;28;20492;-73
2023/12/16 03:08:33;;;;;;;17.20;6.20;;;5.00;80.40;;;;;;5029826;28;20057;-74
2023/12/16 03:11:00;;;;;;;15.17;6.03;;;5.00;80.50;;;;;;5029090;28;20064;-74
2023/12/16 03:13:25;;;;;;;21.27;7.00;;;5.00;80.60;;;;;;5028334;28;20103;-74
2023/12/16 03:15:51;;;;;;;17.37;5.70;;;5.00;80.70;;;;;;5028716;28;20053;-74
2023/12/16 03:18:17;;;;;;;16.87;5.70;;;5.00;80.80;;;;;;5022142;28;20059;-74
2023/12/16 03:20:42;;;;;;;17.23;6.63;;;5.00;80.80;;;;;;5027959;28;20054;-74
2023/12/16 03:23:08;;;;;;;21.53;6.17;;;5.00;80.90;;;;;;5029263;28;20077;-74
2023/12/16 03:25:34;;;;;;;17.83;5.67;;;5.00;80.90;;;;;;5028994;28;20455;-74
2023/12/16 03:28:00;;;;;;;20.87;6.50;;;5.00;81.10;;;;;;5029615;28;20079;-74
2023/12/16 03:30:26;;;;;;;17.67;6.47;;;5.00;81.10;;;;;;5027963;28;20516;-74
2023/12/16 03:32:51;;;;;;;20.30;6.43;;;5.00;81.10;;;;;;5028639;28;20405;-74
2023/12/16 03:35:17;;;;;;;21.20;6.90;;;5.00;81.20;;;;;;5028405;28;20053;-74
2023/12/16 03:37:42;;;;;;;14.93;6.73;;;4.90;81.40;;;;;;5027764;28;20127;-74
2023/12/16 03:40:08;;;;;;;20.87;7.40;;;5.00;81.40;;;;;;5028475;28;20539;-74
2023/12/16 03:42:34;;;;;;;24.00;8.20;;;5.00;81.50;;;;;;5022977;28;20424;-74
2023/12/16 03:45:00;;;;;;;20.00;6.70;;;4.90;81.50;;;;;;5028272;28;20377;-73
2023/12/16 03:47:26;;;;;;;23.10;6.87;;;4.90;81.40;;;;;;5027806;28;20048;-74
2023/12/16 03:49:51;;;;;;;15.80;7.67;;;4.80;81.40;;;;;;5028460;28;20058;-74
2023/12/16 03:52:17;;;;;;;24.73;7.17;;;4.70;81.40;;;;;;5028077;28;20045;-73
2023/12/16 03:54:42;;;;;;;20.53;6.57;;;4.70;81.60;;;;;;5031514;28;20128;-74
2023/12/16 03:57:08;;;;;;;22.97;7.60;;;4.60;81.70;;;;;;5027367;28;20264;-73
2023/12/16 03:59:34;;;;;;;14.17;6.93;;;4.50;81.90;;;;;;5029434;28;20069;-74
2023/12/16 04:01:59;;;;;;;24.40;7.30;;;4.50;82.10;;;;;;5028486;28;20104;-74
2023/12/16 04:04:26;;;;;;;18.10;6.87;;;4.50;82.10;;;;;;5028312;28;20041;-73
2023/12/16 04:06:51;;;;;;;22.80;7.00;;;4.50;82.20;;;;;;5027771;28;20057;-74
2023/12/16 04:09:17;;;;;;;22.30;7.17;;;4.40;82.30;;;;;;5027964;28;20068;-74
2023/12/16 04:11:49;;;;;;;20.70;7.60;;;4.40;82.50;;;;;;5027859;28;20060;-74
2023/12/16 04:14:15;;;;;;;22.40;7.77;;;4.40;82.50;;;;;;5027744;28;20096;-74
2023/12/16 04:16:40;;;;;;;20.70;8.53;;;4.40;82.60;;;;;;5027920;28;20092;-74
2023/12/16 04:19:06;;;;;;;21.83;8.90;;;4.40;82.80;;;;;;5008768;28;20434;-73
2023/12/16 04:21:32;;;;;;;19.33;8.67;;;4.40;82.80;;;;;;5006886;28;20053;-74
2023/12/16 04:23:58;;;;;;;24.77;8.43;;;4.40;82.70;;;;;;5008114;28;20058;-74
2023/12/16 04:26:24;;;;;;;22.17;10.20;;;4.40;82.70;;;;;;5008562;28;20077;-74
2023/12/16 04:28:50;;;;;;;20.50;9.80;;;4.40;82.70;;;;;;5026530;28;20083;-74
2023/12/16 04:31:17;;;;;;;22.93;9.87;;;4.40;82.80;;;;;;5027384;28;20164;-74
2023/12/16 04:33:43;;;;;;;22.57;8.60;;;4.40;82.90;;;;;;5028049;28;20049;-74
2023/12/16 04:36:18;;;;;;;22.37;7.10;;;4.40;83.10;;;;;;5026326;28;20057;-74
2023/12/16 04:38:43;;;;;;;22.20;7.70;;;4.40;83.00;;;;;;5026560;28;20080;-74
2023/12/16 04:41:14;;;;;;;23.77;7.17;;;4.40;83.10;;;;;;5039849;28;20077;-74
2023/12/16 04:43:40;;;;;;;25.10;8.10;;;4.40;83.20;;;;;;5022649;28;20107;-74
2023/12/16 04:46:06;;;;;;;28.43;6.77;;;4.40;83.30;;;;;;5026020;28;20053;-74
2023/12/16 04:48:33;;;;;;;22.00;6.90;;;4.50;83.50;;;;;;5027540;28;20055;-74
2023/12/16 04:51:06;;;;;;;22.90;8.50;;;4.50;83.40;;;;;;5026465;28;20452;-74
2023/12/16 04:53:32;;;;;;;26.20;6.17;;;4.50;83.40;;;;;;5027443;28;20045;-74
2023/12/16 04:55:59;;;;;;;26.73;8.57;;;4.50;83.50;;;;;;5026517;28;20179;-74
2023/12/16 04:58:25;;;;;;;26.67;7.53;;;4.50;83.50;;;;;;5026953;28;20045;-74
2023/12/16 05:00:51;;;;;;;24.50;7.00;;;4.50;83.50;;;;;;5039046;28;20169;-74
2023/12/16 05:03:17;;;;;;;23.67;8.30;;;4.50;83.50;;;;;;5024109;28;20136;-74
2023/12/16 05:05:42;;;;;;;23.97;9.20;;;4.50;83.60;;;;;;5027330;28;20048;-74
2023/12/16 05:08:09;;;;;;;22.77;7.67;;;4.50;83.70;;;;;;5027052;28;20390;-73
2023/12/16 05:10:35;;;;;;;30.23;8.00;;;4.50;83.80;;;;;;5023021;28;20443;-75
2023/12/16 05:13:00;;;;;;;30.77;7.90;;;4.50;83.80;;;;;;5025426;28;20052;-74
2023/12/16 05:15:26;;;;;;;23.90;8.17;;;4.50;83.90;;;;;;5043818;28;20080;-74
2023/12/16 05:17:52;;;;;;;23.07;7.00;;;4.50;83.90;;;;;;5034328;28;20065;-74
2023/12/16 05:20:18;;;;;;;31.53;7.83;;;4.50;84.00;;;;;;5045850;28;20251;-74
2023/12/16 05:22:43;;;;;;;21.77;6.70;;;4.50;84.00;;;;;;5046312;28;20041;-74
2023/12/16 05:25:09;;;;;;;28.80;6.73;;;4.50;84.10;;;;;;5036149;28;20045;-73
2023/12/16 05:27:35;;;;;;;27.10;7.90;;;4.60;84.30;;;;;;5024948;28;20092;-74
2023/12/16 05:30:02;;;;;;;27.53;6.73;;;4.70;84.40;;;;;;5014574;28;20090;-75
2023/12/16 05:32:28;;;;;;;29.17;7.47;;;4.70;84.40;;;;;;5015302;28;20053;-74
2023/12/16 05:34:54;;;;;;;31.47;6.93;;;4.70;84.50;;;;;;5026318;28;20044;-74
2023/12/16 05:37:20;;;;;;;28.67;7.47;;;4.80;84.50;;;;;;5023476;28;20081;-74
2023/12/16 05:39:46;;;;;;;26.13;7.90;;;4.90;84.50;;;;;;5026792;28;20115;-74
2023/12/16 05:42:12;;;;;;;32.93;9.50;;;5.00;84.60;;;;;;5020788;28;20493;-74
2023/12/16 05:44:37;;;;;;;30.33;9.13;;;5.00;84.70;;;;;;5007037;28;20057;-74
2023/12/16 05:47:05;;;;;;;31.10;8.60;;;5.10;84.70;;;;;;5015006;28;20099;-74
2023/12/16 05:49:31;;;;;;;31.57;7.97;;;5.20;84.80;;;;;;5023646;28;20045;-74
2023/12/16 05:51:56;;;;;;;33.90;9.27;;;5.30;84.80;;;;;;5025735;28;20053;-75
2023/12/16 05:54:25;;;;;;;35.40;8.27;;;5.30;84.80;;;;;;5025446;28;20382;-74
2023/12/16 05:56:51;;;;;;;31.10;8.57;;;5.30;84.90;;;;;;5026375;28;20099;-75
2023/12/16 05:59:17;;;;;;;31.47;10.80;;;5.40;84.90;;;;;;5025755;28;20053;-74
2023/12/16 06:01:44;;;;;;;37.90;10.00;;;5.50;84.80;;;;;;5025605;28;20049;-74
2023/12/16 06:04:09;;;;;;;34.20;9.57;;;5.50;84.90;;;;;;5007980;28;20080;-74
2023/12/16 06:06:35;;;;;;;40.33;9.70;;;5.60;84.90;;;;;;5024251;28;20077;-74
2023/12/16 06:09:01;;;;;;;46.70;10.00;;;5.60;85.00;;;;;;5026501;28;20349;-74
2023/12/16 06:11:26;;;;;;;28.70;9.07;;;5.60;85.00;;;;;;5025262;28;20392;-74
2023/12/16 06:13:52;;;;;;;35.23;12.03;;;5.60;85.00;;;;;;5025880;28;20150;-74
2023/12/16 06:16:18;;;;;;;40.93;13.03;;;5.70;85.20;;;;;;5023181;28;20049;-74
2023/12/16 06:18:47;;;;;;;42.10;13.60;;;5.70;85.20;;;;;;5021194;28;20045;-75
2023/12/16 06:21:13;;;;;;;43.97;11.77;;;5.80;85.50;;;;;;5025511;28;20413;-74
2023/12/16 06:23:39;;;;;;;41.07;11.33;;;5.80;85.40;;;;;;5024693;28;20056;-74
2023/12/16 06:26:05;;;;;;;47.37;11.60;;;5.80;85.50;;;;;;5024335;28;20073;-74
2023/12/16 06:28:31;;;;;;;46.30;11.97;;;5.80;85.60;;;;;;5024528;28;20049;-74
2023/12/16 06:30:56;;;;;;;58.90;12.77;;;5.80;85.80;;;;;;5022605;28;20416;-75
2023/12/16 06:33:22;;;;;;;52.43;13.40;;;5.80;86.10;;;;;;5035412;28;20394;-75
2023/12/16 06:35:48;;;;;;;47.67;12.47;;;5.80;86.10;;;;;;5020226;28;20071;-75
2023/12/16 06:38:14;;;;;;;51.90;12.63;;;5.80;86.10;;;;;;5017930;28;20045;-75
2023/12/16 06:40:40;;;;;;;51.47;14.10;;;5.90;86.20;;;;;;5024684;28;20115;-75
2023/12/16 06:43:06;;;;;;;56.20;13.70;;;5.90;86.30;;;;;;5022387;28;20041;-75
2023/12/16 06:45:32;;;;;;;53.20;14.37;;;5.90;86.40;;;;;;5028748;28;20413;-75
2023/12/16 06:47:58;;;;;;;50.17;13.33;;;5.90;86.50;;;;;;5012214;28;20397;-75
2023/12/16 06:50:24;;;;;;;64.13;14.63;;;5.90;86.60;;;;;;5028739;28;20041;-74
2023/12/16 06:52:50;;;;;;;63.47;15.00;;;6.00;86.70;;;;;;5028883;28;20053;-75
2023/12/16 06:55:15;;;;;;;70.57;15.30;;;6.00;86.80;;;;;;5028164;28;20045;-74
2023/12/16 06:57:41;;;;;;;88.10;38.10;;;6.00;86.80;;;;;;5029988;28;20067;-75
2023/12/16 07:00:09;;;;;;;65.03;16.03;;;6.10;87.00;;;;;;5020309;28;20053;-74
2023/12/16 07:02:37;;;;;;;68.97;16.07;;;6.10;87.10;;;;;;5035589;28;20139;-75
2023/12/16 07:05:04;;;;;;;64.07;15.60;;;6.10;87.20;;;;;;5027317;28;20064;-74
2023/12/16 07:07:31;;;;;;;64.83;15.97;;;6.10;87.20;;;;;;5028311;28;20486;-75
2023/12/16 07:09:56;;;;;;;69.80;16.57;;;6.20;87.30;;;;;;5028814;28;20064;-75
2023/12/16 07:12:22;;;;;;;76.40;17.00;;;6.10;87.40;;;;;;5029011;28;20136;-75
2023/12/16 07:14:48;;;;;;;66.33;16.53;;;6.20;87.50;;;;;;5028631;28;20049;-75
2023/12/16 07:17:13;;;;;;;66.77;15.67;;;6.20;87.40;;;;;;5021223;28;20042;-74
2023/12/16 07:19:39;;;;;;;84.60;17.47;;;6.20;87.50;;;;;;5009189;28;20488;-74
2023/12/16 07:22:05;;;;;;;81.07;17.43;;;6.20;87.60;;;;;;5009627;28;20141;-75
2023/12/16 07:24:30;;;;;;;87.80;18.33;;;6.20;87.70;;;;;;5009012;28;20057;-75
2023/12/16 07:26:56;;;;;;;85.17;19.47;;;6.20;87.70;;;;;;5024866;28;20069;-75
2023/12/16 07:29:22;;;;;;;93.63;20.40;;;6.20;87.80;;;;;;5008573;28;20540;-74
2023/12/16 07:31:48;;;;;;;90.17;26.10;;;6.30;88.00;;;;;;5021384;28;20280;-74
2023/12/16 07:34:14;;;;;;;90.73;22.70;;;6.30;88.00;;;;;;5028442;28;20121;-74
2023/12/16 07:36:39;;;;;;;82.07;21.23;;;6.40;88.20;;;;;;5043309;28;20116;-74
2023/12/16 07:39:05;;;;;;;103.83;24.37;;;6.40;88.40;;;;;;5028915;28;20133;-74
2023/12/16 07:41:31;;;;;;;93.73;23.77;;;6.50;88.50;;;;;;5027507;28;20045;-74
2023/12/16 07:43:57;;;;;;;89.87;24.90;;;6.50;88.60;;;;;;5009856;28;20046;-74
2023/12/16 07:46:24;;;;;;;97.30;24.77;;;6.50;88.60;;;;;;5010186;28;20084;-75
2023/12/16 07:48:50;;;;;;;104.07;26.80;;;6.60;88.70;;;;;;5028701;28;20085;-74
2023/12/16 07:51:17;;;;;;;98.77;25.03;;;6.60;88.70;;;;;;5016367;28;20080;-74
2023/12/16 07:53:46;;;;;;;89.57;25.23;;;6.60;88.80;;;;;;5010455;28;20057;-75
2023/12/16 07:56:16;;;;;;;102.10;25.77;;;6.70;88.90;;;;;;5010111;28;20045;-74
2023/12/16 07:58:43;;;;;;;121.00;48.23;;;6.70;88.90;;;;;;5020917;28;20568;-74
2023/12/16 08:01:13;;;;;;;100.00;26.17;;;6.70;88.90;;;;;;5026876;28;20125;-75
2023/12/16 08:03:40;;;;;;;98.95;25.38;;;6.70;88.90;;;;;;5013169;28;20053;-74
2023/12/16 08:06:05;;;;;;;93.53;24.70;;;6.80;88.90;;;;;;5017544;28;20038;-75
2023/12/16 08:08:31;;;;;;;95.73;26.00;;;6.80;89.00;;;;;;5023580;28;20108;-74
2023/12/16 08:10:57;;;;;;;95.03;24.87;;;6.80;88.90;;;;;;5024888;28;20050;-74
2023/12/16 08:13:22;;;;;;;82.07;24.10;;;6.80;88.90;;;;;;5025391;28;20053;-75
2023/12/16 08:15:48;;;;;;;98.60;26.87;;;6.80;88.80;;;;;;5027557;28;20139;-75
2023/12/16 08:18:15;;;;;;;95.07;25.83;;;6.80;88.90;;;;;;5027829;28;20087;-75
2023/12/16 08:20:41;;;;;;;97.43;27.23;;;6.90;88.80;;;;;;5023956;28;20408;-74
2023/12/16 08:23:08;;;;;;;100.53;27.50;;;6.90;88.80;;;;;;5028084;28;20053;-75
2023/12/16 08:25:37;;;;;;;101.90;29.40;;;6.90;88.80;;;;;;5025807;28;20050;-74
2023/12/16 08:28:03;;;;;;;95.47;25.33;;;6.90;88.90;;;;;;5027232;28;20077;-74
2023/12/16 08:30:28;;;;;;;93.27;27.10;;;6.90;88.90;;;;;;5028029;28;20092;-75
2023/12/16 08:32:54;;;;;;;84.20;25.67;;;6.90;88.90;;;;;;5025464;28;20045;-75
2023/12/16 08:35:19;;;;;;;113.53;26.80;;;6.90;88.90;;;;;;5025542;28;20045;-74
2023/12/16 08:37:45;;;;;;;97.67;24.60;;;6.90;89.00;;;;;;5022345;28;20049;-75
2023/12/16 08:40:11;;;;;;;111.47;25.67;;;6.90;89.10;;;;;;5026709;28;20145;-74
2023/12/16 08:42:41;;;;;;;114.33;25.80;;;6.90;89.30;;;;;;5023280;28;20140;-74
2023/12/16 08:45:07;;;;;;;103.27;24.07;;;6.90;89.20;;;;;;5022184;28;20061;-75
2023/12/16 08:47:33;;;;;;;112.60;26.67;;;7.00;89.30;;;;;;5025523;28;20053;-74
2023/12/16 08:49:59;;;;;;;104.07;25.03;;;7.00;89.30;;;;;;5027052;28;20478;-75
2023/12/16 08:52:26;;;;;;;100.87;26.17;;;7.00;89.40;;;;;;5025412;28;20049;-75
2023/12/16 08:54:52;;;;;;;92.83;23.37;;;7.00;89.40;;;;;;5024977;28;20053;-74
2023/12/16 08:57:18;;;;;;;107.37;25.53;;;7.00;89.50;;;;;;5025852;28;20181;-75
2023/12/16 08:59:43;;;;;;;106.50;25.47;;;7.10;89.50;;;;;;5026123;28;20448;-74
2023/12/16 09:02:09;;;;;;;97.60;25.67;;;7.20;89.50;;;;;;5025979;28;20053;-75
2023/12/16 09:04:34;;;;;;;120.10;24.80;;;7.20;89.50;;;;;;5027322;28;20053;-74
2023/12/16 09:07:00;;;;;;;102.87;24.67;;;7.20;89.50;;;;;;5027753;28;20099;-75
2023/12/16 09:09:26;;;;;;;103.73;25.60;;;7.20;89.50;;;;;;5027470;28;20057;-75
2023/12/16 09:11:53;;;;;;;95.67;27.83;;;7.20;89.50;;;;;;5026107;28;20056;-75
2023/12/16 09:14:18;;;;;;;106.37;24.27;;;7.20;89.50;;;;;;5028411;28;20048;-75
2023/12/16 09:16:44;;;;;;;111.00;25.50;;;7.20;89.50;;;;;;5025920;28;20045;-75
2023/12/16 09:19:11;;;;;;;100.83;24.63;;;7.20;89.60;;;;;;5008505;28;20481;-74
2023/12/16 09:21:37;;;;;;;105.03;25.70;;;7.20;89.60;;;;;;5007045;28;20448;-75
2023/12/16 09:24:06;;;;;;;115.70;24.57;;;7.20;89.60;;;;;;5013870;28;20064;-75
2023/12/16 09:26:32;;;;;;;98.80;24.10;;;7.20;89.60;;;;;;5025916;28;20065;-73
2023/12/16 09:28:59;;;;;;;102.97;24.03;;;7.20;89.70;;;;;;5025421;28;20452;-75
2023/12/16 09:31:24;;;;;;;102.77;24.63;;;7.20;89.60;;;;;;5026159;28;20405;-75
2023/12/16 09:33:50;;;;;;;112.27;24.67;;;7.20;89.70;;;;;;5011645;28;20041;-74
2023/12/16 09:36:16;;;;;;;101.40;24.30;;;7.20;89.60;;;;;;5006879;28;20436;-75
2023/12/16 09:38:42;;;;;;;102.23;24.33;;;7.20;89.60;;;;;;5005340;28;20054;-74
2023/12/16 09:41:22;;;;;;;112.93;25.03;;;7.20;89.70;;;;;;5009253;28;20120;-75
2023/12/16 09:43:52;;;;;;;112.00;24.73;;;7.20;89.60;;;;;;5010142;28;20078;-75
2023/12/16 09:46:23;;;;;;;105.47;25.13;;;7.20;89.60;;;;;;5007288;28;20049;-75
2023/12/16 09:48:50;;;;;;;91.75;22.77;;;7.20;89.70;;;;;;5006371;28;20456;-75
2023/12/16 09:51:16;;;;;;;120.27;24.47;;;7.20;89.70;;;;;;5006084;28;20050;-75
2023/12/16 09:53:43;;;;;;;104.63;23.43;;;7.20;89.80;;;;;;5021210;28;20049;-75
2023/12/16 09:56:12;;;;;;;92.50;22.80;;;7.30;89.70;;;;;;5024567;28;20064;-75
2023/12/16 09:58:43;;;;;;;90.90;21.60;;;7.30;89.80;;;;;;5026303;28;20523;-74
2023/12/16 10:01:13;;;;;;;86.63;22.47;;;7.40;89.80;;;;;;5006521;28;20835;-75
2023/12/16 10:03:40;;;;;;;85.83;23.20;;;7.40;89.90;;;;;;5006883;28;20741;-74
2023/12/16 10:06:07;;;;;;;87.20;27.97;;;7.40;90.00;;;;;;5022306;28;20453;-76
2023/12/16 10:08:34;;;;;;;79.80;22.87;;;7.40;89.90;;;;;;5023707;28;20408;-75
2023/12/16 10:11:02;;;;;;;83.17;22.70;;;7.40;89.80;;;;;;5025021;28;20049;-75
2023/12/16 10:13:30;;;;;;;84.17;23.73;;;7.40;90.00;;;;;;5024544;28;20160;-75
2023/12/16 10:15:56;;;;;;;85.60;24.80;;;7.50;89.90;;;;;;5024293;28;20102;-75
2023/12/16 10:18:22;;;;;;;76.60;24.23;;;7.50;90.00;;;;;;5013101;28;20061;-76
2023/12/16 10:20:48;;;;;;;82.97;26.63;;;7.50;90.10;;;;;;5005909;28;20058;-76
2023/12/16 10:23:14;;;;;;;71.17;25.37;;;7.50;90.00;;;;;;5007581;28;20058;-75
2023/12/16 10:25:40;;;;;;;74.90;26.07;;;7.50;90.10;;;;;;5004411;28;20054;-75
2023/12/16 10:28:06;;;;;;;76.50;28.37;;;7.50;90.10;;;;;;5006286;28;20497;-77
2023/12/16 10:30:32;;;;;;;70.67;22.93;;;7.50;90.10;;;;;;5004846;28;20104;-74
2023/12/16 10:33:06;;;;;;;67.43;23.03;;;7.50;90.10;;;;;;5015788;28;20045;-75
2023/12/16 10:35:32;;;;;;;76.70;24.03;;;7.50;90.00;;;;;;5024701;28;20050;-74
2023/12/16 10:37:59;;;;;;;86.40;24.53;;;7.50;90.00;;;;;;5026437;28;20061;-75
2023/12/16 10:40:24;;;;;;;77.33;27.43;;;7.50;90.00;;;;;;5026080;28;20529;-75
2023/12/16 10:42:50;;;;;;;74.73;24.97;;;7.50;90.00;;;;;;5018223;28;20045;-75
2023/12/16 10:45:16;;;;;;;69.63;23.63;;;7.50;90.00;;;;;;5019967;28;20585;-75
2023/12/16 10:47:43;;;;;;;78.23;24.67;;;7.50;90.00;;;;;;5005151;28;20099;-75
2023/12/16 10:50:15;;;;;;;72.57;24.37;;;7.50;90.00;;;;;;5006530;28;20050;-75
2023/12/16 10:52:51;;;;;;;75.90;24.03;;;7.50;90.00;;;;;;5005863;28;20042;-75
2023/12/16 10:55:23;;;;;;;66.53;27.60;;;7.60;90.00;;;;;;5015608;28;20137;-75
2023/12/16 10:58:07;;;;;;;64.03;28.97;;;7.50;90.00;;;;;;5025220;28;20092;-75
2023/12/16 11:00:37;;;;;;;69.97;27.20;;;7.60;90.10;;;;;;5024303;28;20056;-75
2023/12/16 11:03:13;;;;;;;67.32;22.10;;;7.60;90.10;;;;;;5026131;28;20057;-75
2023/12/16 11:05:58;;;;;;;76.53;22.23;;;7.60;90.20;;;;;;5025338;28;20057;-75
2023/12/16 11:08:25;;;;;;;63.13;22.40;;;7.60;90.10;;;;;;5026179;28;20252;-75
2023/12/16 11:10:53;;;;;;;62.40;21.73;;;7.60;90.20;;;;;;5023635;28;20057;-75
2023/12/16 11:13:19;;;;;;;65.47;23.63;;;7.70;90.20;;;;;;5025197;28;20045;-75
2023/12/16 11:15:50;;;;;;;50.37;19.10;;;7.70;90.20;;;;;;5025666;28;20060;-75
2023/12/16 11:18:29;;;;;;;47.95;19.50;;;7.70;90.20;;;;;;5026124;28;20392;-75
2023/12/16 11:21:04;;;;;;;41.57;18.83;;;7.80;90.10;;;;;;5025193;28;20351;-77
2023/12/16 11:23:30;;;;;;;39.47;17.80;;;7.80;90.20;;;;;;5026162;28;20057;-76
2023/12/16 11:26:00;;;;;;;40.03;17.60;;;7.80;90.10;;;;;;5021956;28;20045;-75
2023/12/16 11:28:27;;;;;;;36.93;18.23;;;7.80;90.10;;;;;;5027667;28;20049;-75
2023/12/16 11:31:03;;;;;;;35.77;19.03;;;7.80;90.10;;;;;;4992751;28;20038;-75
2023/12/16 11:33:46;;;;;;;39.80;17.23;;;7.80;90.20;;;;;;5014760;28;20101;-75
2023/12/16 11:36:12;;;;;;;42.83;18.63;;;7.80;90.10;;;;;;5009541;28;20054;-75
2023/12/16 11:38:46;;;;;;;40.10;19.13;;;7.80;90.10;;;;;;5010186;28;20049;-75
2023/12/16 11:41:37;;;;;;;37.87;19.13;;;7.80;90.00;;;;;;5011370;28;20045;-75
2023/12/16 11:44:03;;;;;;;35.47;18.50;;;7.80;90.10;;;;;;5010667;28;20500;-75
2023/12/16 11:46:38;;;;;;;35.53;19.03;;;7.80;90.10;;;;;;5009367;28;20071;-75
2023/12/16 11:49:07;;;;;;;37.63;18.37;;;7.80;90.00;;;;;;5009340;28;20408;-75
2023/12/16 11:51:34;;;;;;;40.93;17.73;;;7.90;90.10;;;;;;5008586;28;20401;-76
2023/12/16 11:54:01;;;;;;;39.00;19.57;;;7.90;90.00;;;;;;5009321;28;20064;-76
2023/12/16 11:56:27;;;;;;;35.00;17.70;;;7.90;90.00;;;;;;5028713;28;20064;-75
2023/12/16 11:58:59;;;;;;;33.60;18.57;;;7.90;90.00;;;;;;5043481;28;20053;-75
2023/12/16 12:01:26;;;;;;;32.40;16.67;;;7.90;90.00;;;;;;5007251;28;20050;-75
2023/12/16 12:03:55;;;;;;;34.63;18.93;;;8.00;90.00;;;;;;5006773;28;20050;-75
2023/12/16 12:06:22;;;;;;;29.40;15.83;;;7.90;89.90;;;;;;5008900;28;20078;-75
2023/12/16 12:08:47;;;;;;;38.50;18.03;;;7.90;89.90;;;;;;5009126;28;20064;-75
2023/12/16 12:11:16;;;;;;;35.23;17.83;;;7.90;90.00;;;;;;5021059;28;20041;-77
2023/12/16 12:13:43;;;;;;;28.77;16.63;;;8.00;90.00;;;;;;5029136;28;20057;-76
2023/12/16 12:16:12;;;;;;;34.30;18.67;;;7.90;90.00;;;;;;5027250;28;20405;-75
2023/12/16 12:18:41;;;;;;;43.67;17.90;;;7.90;90.00;;;;;;5029097;28;20057;-75
2023/12/16 12:21:07;;;;;;;39.37;17.80;;;7.90;90.00;;;;;;5028071;28;22975;-75
2023/12/16 12:23:33;;;;;;;39.23;18.67;;;7.90;90.00;;;;;;5028900;28;20049;-75
2023/12/16 12:26:02;;;;;;;42.50;20.50;;;7.90;89.90;;;;;;5027932;28;20175;-76
2023/12/16 12:28:28;;;;;;;39.43;18.27;;;7.90;90.00;;;;;;5028317;28;20918;-76
2023/12/16 12:31:02;;;;;;;36.93;18.30;;;7.90;90.00;;;;;;5027647;28;20053;-75
2023/12/16 12:33:28;;;;;;;41.47;21.10;;;8.00;90.00;;;;;;5030986;28;20109;-75
2023/12/16 12:35:54;;;;;;;46.53;22.77;;;8.00;90.00;;;;;;5004102;28;20139;-77
2023/12/16 12:38:20;;;;;;;36.77;20.93;;;8.00;90.00;;;;;;5008807;28;20045;-76